Time,TemperatureF,DewpointF,PressureIn,WindDirection,WindDirectionDegrees,WindSpeedMPH,WindSpeedGustMPH,Humidity,HourlyPrecipIn,Conditions,Clouds,dailyrainin,SolarRadiationWatts/m^2,SoftwareType,DateUTC
2013-04-29 00:00:00,73.9,65.9,30.03,WNW,296,4.0,9.0,76,0.00,,---,0.00,0.00,VWS V14.00,2013-04-29 04:00:00,
2013-04-29 00:30:00,73.8,66.5,30.04,WNW,286,0.0,9.0,78,0.00,,---,0.00,0.00,VWS V14.00,2013-04-29 04:30:00,
2013-04-29 01:00:00,73.9,67.0,30.04,WNW,286,0.0,7.0,79,0.00,,---,0.00,0.00,VWS V14.00,2013-04-29 05:00:00,
2013-04-29 01:30:00,73.6,66.7,30.03,WNW,284,0.0,7.0,79,0.00,,---,0.00,0.00,VWS V14.00,2013-04-29 05:30:00,
2013-04-29 02:00:00,73.2,67.7,30.01,WNW,285,0.0,6.0,83,0.00,,---,0.00,0.00,VWS V14.00,2013-04-29 06:00:00,
2013-04-29 02:30:00,72.5,67.7,30.00,WNW,286,0.0,6.0,85,0.00,,---,0.00,0.00,VWS V14.00,2013-04-29 06:30:00,
2013-04-29 03:00:00,71.8,67.1,30.00,WNW,286,2.0,6.0,85,0.00,,---,0.00,0.00,VWS V14.00,2013-04-29 07:00:00,
2013-04-29 03:30:00,71.3,66.2,29.99,WNW,286,0.0,3.0,84,0.00,,---,0.00,0.00,VWS V14.00,2013-04-29 07:30:00,
2013-04-29 04:00:00,70.6,65.9,29.99,WNW,286,0.0,1.0,85,0.00,,---,0.00,0.00,VWS V14.00,2013-04-29 08:00:00,
2013-04-29 04:30:00,69.6,65.6,29.99,WNW,286,0.0,0.0,87,0.00,,---,0.00,0.00,VWS V14.00,2013-04-29 08:30:00,
2013-04-29 05:00:00,69.3,65.3,29.99,WNW,286,0.0,2.0,87,0.00,,---,0.00,0.00,VWS V14.00,2013-04-29 09:00:00,
2013-04-29 05:30:00,69.3,65.3,29.99,WNW,286,0.0,3.0,87,0.00,,---,0.00,0.00,VWS V14.00,2013-04-29 09:30:00,
2013-04-29 06:00:00,69.3,64.9,30.00,WNW,286,0.0,2.0,86,0.00,,---,0.00,0.00,VWS V14.00,2013-04-29 10:00:00,
2013-04-29 06:30:00,69.2,64.8,30.01,WNW,286,0.0,2.0,86,0.00,,---,0.00,12.00,VWS V14.00,2013-04-29 10:30:00,
2013-04-29 07:00:00,69.4,65.0,30.01,WNW,286,0.0,2.0,86,0.00,,---,0.00,65.00,VWS V14.00,2013-04-29 11:00:00,
2013-04-29 07:30:00,70.7,66.3,30.02,WNW,286,2.0,5.0,86,0.00,,---,0.00,206.00,VWS V14.00,2013-04-29 11:30:00,
2013-04-29 08:00:00,74.0,67.8,30.02,WNW,286,3.0,7.0,81,0.00,,---,0.00,199.00,VWS V14.00,2013-04-29 12:00:00,
2013-04-29 08:30:00,76.7,67.4,30.01,WNW,288,2.0,8.0,73,0.00,,---,0.00,378.00,VWS V14.00,2013-04-29 12:30:00,
2013-04-29 09:00:00,78.3,67.3,30.02,NW,310,7.0,11.0,69,0.00,,---,0.00,390.00,VWS V14.00,2013-04-29 13:00:00,
2013-04-29 09:30:00,77.1,66.6,30.02,NNW,348,5.0,14.0,70,0.00,,---,0.00,148.00,VWS V14.00,2013-04-29 13:30:00,
2013-04-29 10:00:00,78.7,67.7,30.03,NW,310,5.0,10.0,69,0.00,,---,0.00,306.00,VWS V14.00,2013-04-29 14:00:00,
2013-04-29 10:30:00,80.7,68.3,30.03,NW,325,0.0,12.0,66,0.00,,---,0.00,290.00,VWS V14.00,2013-04-29 14:30:00,
2013-04-29 11:00:00,81.9,69.0,30.03,North,356,4.0,13.0,65,0.00,,---,0.00,728.00,VWS V14.00,2013-04-29 15:00:00,
2013-04-29 11:30:00,81.3,69.3,30.03,West,268,3.0,14.0,67,0.00,,---,0.00,828.00,VWS V14.00,2013-04-29 15:30:00,
2013-04-29 12:00:00,83.6,69.7,30.03,West,259,2.0,15.0,63,0.00,,---,0.00,830.00,VWS V14.00,2013-04-29 16:00:00,
2013-04-29 12:30:00,80.3,69.2,30.02,NW,319,2.0,15.0,69,0.00,,---,0.00,390.00,VWS V14.00,2013-04-29 16:30:00,
2013-04-29 13:00:00,80.3,69.6,30.01,NNW,327,0.0,14.0,70,0.00,,---,0.00,455.00,VWS V14.00,2013-04-29 17:00:00,
2013-04-29 13:30:00,82.6,70.5,30.00,WSW,248,1.0,13.0,67,0.00,,---,0.00,870.00,VWS V14.00,2013-04-29 17:30:00,
2013-04-29 14:00:00,82.8,70.3,29.99,WNW,289,0.0,15.0,66,0.00,,---,0.00,339.00,VWS V14.00,2013-04-29 18:00:00,
2013-04-29 14:30:00,82.7,71.1,29.98,NW,313,6.0,15.0,68,0.00,,---,0.00,905.00,VWS V14.00,2013-04-29 18:30:00,
2013-04-29 15:00:00,82.5,70.9,29.96,WNW,288,1.0,14.0,68,0.00,,---,0.00,274.00,VWS V14.00,2013-04-29 19:00:00,
2013-04-29 15:30:00,82.1,71.3,29.96,NW,308,9.0,16.0,70,0.00,,---,0.00,867.00,VWS V14.00,2013-04-29 19:30:00,
2013-04-29 16:00:00,80.3,70.9,29.95,NW,313,4.0,16.0,73,0.00,,---,0.00,285.00,VWS V14.00,2013-04-29 20:00:00,
2013-04-29 16:30:00,81.8,71.5,29.93,NW,325,2.0,16.0,71,0.00,,---,0.00,622.00,VWS V14.00,2013-04-29 20:30:00,
2013-04-29 17:00:00,81.1,69.6,29.93,WNW,299,4.0,15.0,68,0.00,,---,0.00,309.00,VWS V14.00,2013-04-29 21:00:00,
2013-04-29 17:30:00,80.8,70.1,29.93,WNW,303,3.0,14.0,70,0.00,,---,0.00,181.00,VWS V14.00,2013-04-29 21:30:00,
2013-04-29 18:00:00,79.6,69.8,29.94,NNW,346,6.0,12.0,72,0.00,,---,0.00,97.00,VWS V14.00,2013-04-29 22:00:00,
2013-04-29 18:30:00,78.9,69.5,29.94,NNW,333,4.0,14.0,73,0.00,,---,0.00,14.00,VWS V14.00,2013-04-29 22:30:00,
2013-04-29 19:00:00,78.3,70.1,29.93,NW,321,0.0,10.0,76,0.00,,---,0.00,16.00,VWS V14.00,2013-04-29 23:00:00,
2013-04-29 19:30:00,77.3,69.5,29.93,NNW,340,0.0,6.0,77,0.00,,---,0.00,5.00,VWS V14.00,2013-04-29 23:30:00,
2013-04-29 20:00:00,76.6,69.6,29.93,NNW,340,0.0,4.0,79,0.00,,---,0.00,0.00,VWS V14.00,2013-04-30 00:00:00,
2013-04-29 20:30:00,76.0,69.4,29.95,NNW,341,2.0,3.0,80,0.00,,---,0.00,0.00,VWS V14.00,2013-04-30 00:30:00,
2013-04-29 21:00:00,75.5,69.3,29.95,North,357,3.0,5.0,81,0.00,,---,0.00,0.00,VWS V14.00,2013-04-30 01:00:00,
2013-04-29 21:30:00,75.3,69.1,29.96,North,2,0.0,4.0,81,0.00,,---,0.00,0.00,VWS V14.00,2013-04-30 01:30:00,
2013-04-29 22:00:00,75.0,69.1,29.97,North,2,0.0,1.0,82,0.00,,---,0.00,0.00,VWS V14.00,2013-04-30 02:00:00,
2013-04-29 22:30:00,74.6,69.1,29.97,North,1,0.0,0.0,83,0.00,,---,0.00,0.00,VWS V14.00,2013-04-30 02:30:00,
2013-04-29 23:00:00,73.5,68.7,29.97,North,2,0.0,0.0,85,0.00,,---,0.00,0.00,VWS V14.00,2013-04-30 03:00:00,
2013-04-29 23:30:00,73.0,68.9,29.97,North,2,0.0,0.0,87,0.00,,---,0.00,0.00,VWS V14.00,2013-04-30 03:30:00,